createdAt,value
2019-04-14T00:02:11.716Z,1.33
2019-04-14T00:15:35.562Z,1.40
2019-04-14T00:24:42.504Z,1.23
2019-04-14T00:27:35.008Z,0.70
2019-04-14T00:30:23.481Z,0.80
2019-04-14T00:33:21.441Z,1.83
2019-04-14T00:36:42.087Z,1.30
2019-04-14T00:39:51.136Z,0.60
2019-04-14T00:53:40.290Z,0.60
2019-04-14T00:56:39.109Z,0.77
2019-04-14T01:02:30.294Z,0.60
2019-04-14T01:09:22.194Z,1.03
2019-04-14T01:12:14.886Z,1.90
2019-04-14T01:15:11.419Z,1.60
2019-04-14T01:18:30.105Z,0.93
2019-04-14T01:24:29.607Z,0.70
2019-04-14T01:27:23.386Z,0.63
2019-04-14T01:33:33.600Z,1.87
2019-04-14T01:36:58.988Z,0.60
2019-04-14T01:43:17.110Z,1.07
2019-04-14T01:46:30.004Z,0.70
2019-04-14T01:49:26.890Z,0.80
2019-04-14T01:52:56.773Z,3.07
2019-04-14T02:16:59.572Z,1.17
2019-04-14T02:23:49.682Z,0.80
2019-04-14T02:26:09.158Z,1.20
2019-04-14T02:28:57.598Z,0.90
2019-04-14T02:45:13.924Z,0.70
2019-04-14T02:48:38.235Z,1.13
2019-04-14T03:12:13.956Z,0.60
2019-04-14T03:15:01.885Z,1.23
2019-04-14T03:29:41.169Z,0.77
2019-04-14T03:33:21.141Z,0.60
2019-04-14T03:36:44.885Z,0.70
2019-04-14T03:46:30.841Z,1.13
2019-04-14T03:58:42.361Z,2.70
2019-04-14T04:01:45.688Z,1.30
2019-04-14T04:04:48.864Z,1.73
2019-04-14T04:08:33.410Z,1.40
2019-04-14T04:10:55.444Z,1.40
2019-04-14T04:21:00.899Z,1.23
2019-04-14T04:24:10.664Z,0.67
2019-04-14T04:37:30.747Z,0.70
2019-04-14T04:40:37.584Z,0.50
2019-04-14T04:43:30.171Z,1.20
2019-04-14T04:46:26.620Z,0.90
2019-04-14T04:52:42.861Z,1.10
2019-04-14T04:59:21.283Z,1.10
2019-04-14T05:02:09.621Z,0.73
2019-04-14T05:05:03.505Z,0.53
2019-04-14T05:12:08.905Z,1.77
2019-04-14T05:15:37.916Z,0.90
2019-04-14T05:18:44.751Z,1.07
2019-04-14T05:21:34.313Z,0.90
2019-04-14T05:24:46.121Z,1.53
2019-04-14T05:27:29.825Z,0.80
2019-04-14T05:36:41.124Z,1.07
2019-04-14T05:39:37.911Z,3.10
2019-04-14T05:45:56.980Z,1.07
2019-04-14T05:51:54.494Z,0.90
2019-04-14T05:54:45.157Z,1.43
2019-04-14T05:57:54.615Z,0.70
2019-04-14T06:01:02.192Z,1.20
2019-04-14T06:03:56.111Z,1.13
2019-04-14T06:06:44.036Z,2.70
2019-04-14T06:12:56.945Z,0.87
2019-04-14T06:18:47.236Z,0.90
2019-04-14T06:28:16.718Z,1.77
2019-04-14T06:31:39.133Z,1.70
2019-04-14T06:34:57.408Z,1.03
2019-04-14T06:38:19.757Z,2.00
2019-04-14T06:41:10.972Z,1.33
2019-04-14T06:44:03.094Z,0.80
2019-04-14T06:46:54.505Z,2.13
2019-04-14T06:49:52.667Z,0.80
2019-04-14T06:56:53.664Z,2.50
2019-04-14T07:06:53.237Z,1.43
2019-04-14T07:09:45.057Z,3.57
2019-04-14T07:12:48.407Z,1.10
2019-04-14T07:15:44.863Z,1.27
2019-04-14T07:22:06.972Z,0.87
2019-04-14T07:28:42.994Z,5.67
2019-04-14T07:35:47.767Z,2.40
2019-04-14T07:39:15.869Z,8.30
2019-04-14T07:42:31.757Z,1.17
2019-04-14T07:48:54.323Z,1.10
2019-04-14T07:52:12.749Z,0.90
2019-04-14T07:58:30.670Z,3.50
2019-04-14T08:05:03.832Z,2.47
2019-04-14T08:15:14.962Z,4.20
2019-04-14T08:18:11.732Z,2.40
2019-04-14T08:20:59.727Z,1.13
2019-04-14T08:23:54.923Z,1.10
2019-04-14T08:36:41.811Z,1.60
2019-04-14T08:39:38.848Z,2.13
2019-04-14T08:42:46.320Z,2.90
2019-04-14T08:46:05.334Z,1.57
2019-04-14T08:49:08.853Z,3.83
2019-04-14T08:59:10.973Z,2.63
2019-04-14T09:05:49.775Z,5.90
2019-04-14T09:18:50.056Z,2.53
2019-04-14T09:21:44.399Z,1.37
2019-04-14T09:24:33.183Z,2.00
2019-04-14T09:27:21.134Z,0.90
2019-04-14T09:39:11.766Z,1.07
2019-04-14T09:41:58.312Z,1.80
2019-04-14T09:45:23.487Z,0.60
2019-04-14T09:51:46.423Z,1.00
2019-04-14T09:54:40.084Z,1.53
2019-04-14T10:08:06.704Z,2.30
2019-04-14T10:10:59.100Z,1.03
2019-04-14T10:13:49.651Z,1.10
2019-04-14T10:16:37.841Z,1.43
2019-04-14T10:19:30.676Z,1.30
2019-04-14T10:22:45.827Z,1.87
2019-04-14T10:25:36.308Z,4.17
2019-04-14T10:28:33.261Z,0.80
2019-04-14T10:35:01.194Z,2.20
2019-04-14T10:37:56.069Z,2.27
2019-04-14T10:41:02.534Z,1.57
2019-04-14T10:43:54.243Z,1.57
2019-04-14T10:46:48.518Z,11.43
2019-04-14T10:49:36.933Z,5.40
2019-04-14T10:56:00.503Z,1.77
2019-04-14T11:04:54.266Z,1.03
2019-04-14T11:10:57.533Z,2.30
2019-04-14T11:14:25.089Z,0.80
2019-04-14T11:20:51.701Z,0.80
2019-04-14T11:23:44.586Z,6.60
2019-04-14T11:26:36.164Z,10.57
2019-04-14T11:29:28.595Z,1.90
2019-04-14T11:32:46.199Z,1.90
2019-04-14T11:36:13.318Z,1.40
2019-04-14T11:39:26.473Z,3.03
2019-04-14T11:50:02.631Z,0.80
2019-04-14T11:53:02.939Z,1.60
2019-04-14T11:59:57.699Z,3.93
2019-04-14T12:06:54.905Z,1.50
2019-04-14T12:13:27.256Z,0.80
2019-04-14T12:16:48.499Z,1.83
2019-04-14T12:19:39.141Z,2.50
2019-04-14T12:22:36.380Z,4.40
2019-04-14T12:25:26.693Z,0.67
2019-04-14T12:28:42.922Z,0.70
2019-04-14T12:31:53.009Z,1.27
2019-04-14T12:34:48.984Z,1.60
2019-04-14T12:58:13.617Z,2.03
2019-04-14T13:01:38.790Z,1.00
2019-04-14T13:04:36.602Z,1.00
2019-04-14T13:07:46.333Z,1.83
2019-04-14T13:10:47.626Z,1.37
2019-04-14T13:13:38.603Z,1.23
2019-04-14T13:17:07.652Z,2.10
2019-04-14T13:20:15.124Z,2.23
2019-04-14T13:23:07.073Z,1.33
2019-04-14T13:26:27.824Z,1.33
2019-04-14T13:32:35.418Z,1.00
2019-04-14T13:35:50.271Z,1.10
2019-04-14T13:38:40.758Z,1.00
2019-04-14T13:44:43.941Z,1.27
2019-04-14T13:47:38.315Z,1.87
2019-04-14T13:50:33.867Z,3.53
2019-04-14T13:56:51.019Z,2.03
2019-04-14T14:03:20.801Z,1.53
2019-04-14T14:06:10.575Z,1.37
2019-04-14T14:09:12.528Z,3.73
2019-04-14T14:12:18.135Z,1.87
2019-04-14T14:15:43.003Z,3.67
2019-04-14T14:18:45.162Z,2.00
2019-04-14T14:21:55.901Z,1.70
2019-04-14T14:25:04.831Z,5.10
2019-04-14T14:27:57.373Z,2.20
2019-04-14T14:30:46.532Z,1.70
2019-04-14T14:33:54.733Z,1.40
2019-04-14T14:36:50.263Z,4.03
2019-04-14T14:40:17.718Z,1.20
2019-04-14T14:43:05.888Z,1.53
2019-04-14T14:46:25.082Z,1.90
2019-04-14T14:56:30.845Z,2.03
2019-04-14T15:06:07.265Z,3.23
2019-04-14T15:08:55.501Z,4.90
2019-04-14T15:11:46.239Z,1.43
2019-04-14T15:14:33.812Z,1.30
2019-04-14T15:17:27.190Z,2.40
2019-04-14T15:20:24.636Z,1.10
2019-04-14T15:23:24.304Z,1.40
2019-04-14T15:26:11.137Z,1.40
2019-04-14T15:29:03.261Z,2.12
2019-04-14T15:31:52.035Z,2.67
2019-04-14T15:34:40.654Z,2.63
2019-04-14T15:37:31.452Z,4.47
2019-04-14T15:40:21.972Z,1.70
2019-04-14T15:43:34.943Z,1.20
2019-04-14T15:46:33.210Z,2.30
2019-04-14T15:50:08.919Z,1.70
2019-04-14T15:53:22.743Z,1.40
2019-04-14T16:04:39.345Z,1.97
2019-04-14T16:07:23.908Z,1.70
2019-04-14T16:10:39.688Z,2.60
2019-04-14T16:13:54.021Z,2.93
2019-04-14T16:27:23.374Z,2.23
2019-04-14T16:34:12.098Z,2.43
2019-04-14T16:37:28.139Z,2.07
2019-04-14T16:40:20.595Z,4.97
2019-04-14T16:43:17.813Z,3.83
2019-04-14T16:46:11.804Z,3.27
2019-04-14T16:49:05.463Z,6.33
2019-04-14T16:52:14.987Z,2.37
2019-04-14T16:55:39.314Z,2.00
2019-04-14T17:05:23.464Z,2.37
2019-04-14T17:08:13.386Z,2.50
2019-04-14T17:11:20.587Z,4.43
2019-04-14T17:14:39.848Z,3.77
2019-04-14T17:17:49.066Z,5.80
2019-04-14T17:31:22.914Z,1.70
2019-04-14T17:34:24.564Z,1.83
2019-04-14T17:40:51.997Z,1.57
2019-04-14T17:44:09.277Z,1.83
2019-04-14T17:47:20.252Z,3.67
2019-04-14T17:50:26.172Z,3.17
2019-04-14T17:53:45.228Z,1.20
2019-04-14T17:56:59.654Z,4.03
2019-04-14T18:00:03.258Z,1.50
2019-04-14T18:03:20.546Z,0.97
2019-04-14T18:06:32.841Z,1.83
2019-04-14T18:09:51.670Z,4.87
2019-04-14T18:13:03.235Z,2.93
2019-04-14T18:16:19.398Z,2.57
2019-04-14T18:19:19.053Z,4.63
2019-04-14T18:22:10.005Z,2.17
2019-04-14T18:28:22.592Z,2.20
2019-04-14T18:32:03.478Z,12.20
2019-04-14T18:45:54.738Z,4.53
2019-04-14T18:49:30.607Z,15.83
2019-04-14T19:03:11.433Z,7.87
2019-04-14T19:06:08.315Z,8.83
2019-04-14T19:08:56.703Z,9.57
2019-04-14T19:12:14.931Z,12.20
2019-04-14T19:25:14.520Z,6.13
2019-04-14T19:28:03.165Z,4.50
2019-04-14T19:30:53.833Z,12.33
2019-04-14T19:33:44.626Z,4.37
2019-04-14T19:36:40.794Z,3.00
2019-04-14T19:39:29.897Z,5.93
2019-04-14T19:42:20.706Z,7.73
2019-04-14T19:58:36.193Z,8.87
2019-04-14T20:01:29.082Z,7.93
2019-04-14T20:04:20.511Z,15.83
2019-04-14T20:07:08.798Z,6.77
2019-04-14T20:13:36.874Z,9.37
2019-04-14T20:17:06.144Z,10.73
2019-04-14T20:20:22.115Z,15.17
2019-04-14T20:23:44.022Z,13.37
2019-04-14T20:30:02.146Z,9.50
2019-04-14T20:32:51.198Z,12.30
2019-04-14T20:35:41.068Z,15.97
2019-04-14T20:38:38.217Z,17.03
2019-04-14T20:41:30.742Z,12.60
2019-04-14T20:45:10.744Z,16.23
2019-04-14T20:51:09.033Z,11.80
2019-04-14T20:54:39.300Z,10.73
2019-04-14T21:00:43.221Z,11.00
2019-04-14T21:04:18.840Z,11.53
2019-04-14T21:07:42.289Z,11.10
2019-04-14T21:11:10.424Z,7.03
2019-04-14T21:21:19.990Z,6.90
2019-04-14T21:24:24.840Z,5.00
2019-04-14T21:27:34.580Z,7.03
2019-04-14T21:31:09.053Z,11.37
2019-04-14T21:34:27.789Z,8.13
2019-04-14T21:38:02.687Z,9.93
2019-04-14T21:48:13.410Z,14.97
2019-04-14T21:51:02.546Z,12.00
2019-04-14T22:01:30.282Z,13.13
2019-04-14T22:08:11.223Z,17.67
2019-04-14T22:15:03.432Z,15.83
2019-04-14T22:18:06.775Z,9.83
2019-04-14T22:21:08.139Z,14.20
2019-04-14T22:24:02.360Z,11.90
2019-04-14T22:30:33.531Z,10.07
2019-04-14T22:33:48.480Z,15.33
2019-04-14T22:36:36.846Z,7.97
2019-04-14T22:39:35.079Z,11.03
2019-04-14T22:42:23.482Z,11.53
2019-04-14T22:45:15.955Z,10.20
2019-04-14T22:48:22.403Z,11.93
2019-04-14T22:51:43.460Z,10.90
2019-04-14T22:54:38.399Z,15.23
2019-04-14T22:57:30.500Z,10.37
2019-04-14T23:00:37.952Z,9.80
2019-04-14T23:03:54.457Z,7.70
2019-04-14T23:07:09.680Z,8.53
2019-04-14T23:10:16.261Z,8.50
2019-04-14T23:13:30.592Z,11.93
2019-04-14T23:16:45.990Z,15.27
2019-04-14T23:19:40.637Z,7.43
2019-04-14T23:22:43.298Z,5.37
2019-04-14T23:25:53.872Z,4.93
2019-04-14T23:32:19.741Z,11.83
2019-04-14T23:38:21.593Z,5.00
2019-04-14T23:41:14.637Z,11.90
2019-04-14T23:44:16.289Z,10.03
2019-04-14T23:47:19.252Z,12.37
2019-04-14T23:53:42.485Z,7.60
2019-04-14T23:56:39.525Z,11.90
2019-04-14T23:59:29.912Z,8.97
